sensor_id;sensor_type;location;lat;lon;timestamp;temperature;humidity
72277;SHT30;61204;49.980;8.358;2023-02-13T00:02:05;5.89;91.77
72277;SHT30;61204;49.980;8.358;2023-02-13T00:04:30;5.87;91.73
72277;SHT30;61204;49.980;8.358;2023-02-13T00:06:58;5.89;91.85
72277;SHT30;61204;49.980;8.358;2023-02-13T00:09:23;5.85;91.98
72277;SHT30;61204;49.980;8.358;2023-02-13T00:11:49;5.82;92.07
72277;SHT30;61204;49.980;8.358;2023-02-13T00:14:14;5.83;92.15
72277;SHT30;61204;49.980;8.358;2023-02-13T00:16:39;5.78;92.16
72277;SHT30;61204;49.980;8.358;2023-02-13T00:19:05;5.73;92.52
72277;SHT30;61204;49.980;8.358;2023-02-13T00:21:30;5.78;92.30
72277;SHT30;61204;49.980;8.358;2023-02-13T00:23:58;5.80;92.33
72277;SHT30;61204;49.980;8.358;2023-02-13T00:26:24;5.76;92.21
72277;SHT30;61204;49.980;8.358;2023-02-13T00:28:52;5.69;92.38
72277;SHT30;61204;49.980;8.358;2023-02-13T00:31:20;5.75;92.39
72277;SHT30;61204;49.980;8.358;2023-02-13T00:33:47;5.72;92.22
72277;SHT30;61204;49.980;8.358;2023-02-13T00:36:18;5.70;92.23
72277;SHT30;61204;49.980;8.358;2023-02-13T00:38:45;5.79;91.92
72277;SHT30;61204;49.980;8.358;2023-02-13T00:41:14;5.72;91.68
72277;SHT30;61204;49.980;8.358;2023-02-13T00:43:42;5.68;91.99
72277;SHT30;61204;49.980;8.358;2023-02-13T00:46:08;5.62;92.13
72277;SHT30;61204;49.980;8.358;2023-02-13T00:48:35;5.63;92.13
72277;SHT30;61204;49.980;8.358;2023-02-13T00:51:04;5.75;92.09
72277;SHT30;61204;49.980;8.358;2023-02-13T00:53:31;5.70;91.67
72277;SHT30;61204;49.980;8.358;2023-02-13T00:55:58;5.83;91.34
72277;SHT30;61204;49.980;8.358;2023-02-13T00:58:24;5.85;91.35
72277;SHT30;61204;49.980;8.358;2023-02-13T01:00:51;5.82;91.21
72277;SHT30;61204;49.980;8.358;2023-02-13T01:03:21;5.78;91.40
72277;SHT30;61204;49.980;8.358;2023-02-13T01:05:48;5.73;91.53
72277;SHT30;61204;49.980;8.358;2023-02-13T01:08:15;5.65;91.73
72277;SHT30;61204;49.980;8.358;2023-02-13T01:10:44;5.56;91.87
72277;SHT30;61204;49.980;8.358;2023-02-13T01:13:11;5.55;92.14
72277;SHT30;61204;49.980;8.358;2023-02-13T01:15:39;5.51;92.24
72277;SHT30;61204;49.980;8.358;2023-02-13T01:18:04;5.44;92.32
72277;SHT30;61204;49.980;8.358;2023-02-13T01:20:30;5.40;92.30
72277;SHT30;61204;49.980;8.358;2023-02-13T01:22:56;5.34;92.77
72277;SHT30;61204;49.980;8.358;2023-02-13T01:25:24;5.35;92.92
72277;SHT30;61204;49.980;8.358;2023-02-13T01:27:49;5.32;92.91
72277;SHT30;61204;49.980;8.358;2023-02-13T01:30:17;5.27;93.02
72277;SHT30;61204;49.980;8.358;2023-02-13T01:32:44;5.24;93.22
72277;SHT30;61204;49.980;8.358;2023-02-13T01:35:12;5.19;93.44
72277;SHT30;61204;49.980;8.358;2023-02-13T01:37:38;5.07;93.42
72277;SHT30;61204;49.980;8.358;2023-02-13T01:40:06;5.04;93.56
72277;SHT30;61204;49.980;8.358;2023-02-13T01:42:34;5.06;93.68
72277;SHT30;61204;49.980;8.358;2023-02-13T01:48:01;5.03;93.78
72277;SHT30;61204;49.980;8.358;2023-02-13T01:50:56;5.01;93.80
72277;SHT30;61204;49.980;8.358;2023-02-13T01:53:48;4.97;93.67
72277;SHT30;61204;49.980;8.358;2023-02-13T01:56:28;4.93;93.78
72277;SHT30;61204;49.980;8.358;2023-02-13T01:59:02;4.92;93.71
72277;SHT30;61204;49.980;8.358;2023-02-13T02:01:32;4.92;93.80
72277;SHT30;61204;49.980;8.358;2023-02-13T02:04:07;4.87;93.87
72277;SHT30;61204;49.980;8.358;2023-02-13T02:06:37;4.86;94.01
72277;SHT30;61204;49.980;8.358;2023-02-13T02:09:13;4.80;93.86
72277;SHT30;61204;49.980;8.358;2023-02-13T02:11:58;4.85;93.84
72277;SHT30;61204;49.980;8.358;2023-02-13T02:14:28;4.85;93.92
72277;SHT30;61204;49.980;8.358;2023-02-13T02:16:55;4.79;93.71
72277;SHT30;61204;49.980;8.358;2023-02-13T02:41:59;4.67;93.10
72277;SHT30;61204;49.980;8.358;2023-02-13T02:44:55;4.61;93.61
72277;SHT30;61204;49.980;8.358;2023-02-13T02:47:33;4.59;93.65
72277;SHT30;61204;49.980;8.358;2023-02-13T02:50:33;4.59;93.77
72277;SHT30;61204;49.980;8.358;2023-02-13T02:53:08;4.55;93.75
72277;SHT30;61204;49.980;8.358;2023-02-13T02:55:51;4.40;93.28
72277;SHT30;61204;49.980;8.358;2023-02-13T02:58:44;4.24;94.06
72277;SHT30;61204;49.980;8.358;2023-02-13T03:01:31;4.11;94.07
72277;SHT30;61204;49.980;8.358;2023-02-13T03:04:22;4.00;94.40
72277;SHT30;61204;49.980;8.358;2023-02-13T03:07:15;3.99;95.23
72277;SHT30;61204;49.980;8.358;2023-02-13T03:09:57;3.93;95.05
72277;SHT30;61204;49.980;8.358;2023-02-13T03:12:48;3.86;95.43
72277;SHT30;61204;49.980;8.358;2023-02-13T03:15:38;3.75;95.42
72277;SHT30;61204;49.980;8.358;2023-02-13T03:18:25;3.71;95.82
72277;SHT30;61204;49.980;8.358;2023-02-13T03:21:15;3.58;95.82
72277;SHT30;61204;49.980;8.358;2023-02-13T03:24:24;3.47;95.87
72277;SHT30;61204;49.980;8.358;2023-02-13T03:29:51;3.44;96.27
72277;SHT30;61204;49.980;8.358;2023-02-13T03:32:44;3.47;95.93
72277;SHT30;61204;49.980;8.358;2023-02-13T03:39:00;3.27;95.36
72277;SHT30;61204;49.980;8.358;2023-02-13T03:41:39;3.12;95.37
72277;SHT30;61204;49.980;8.358;2023-02-13T03:44:19;2.97;95.51
72277;SHT30;61204;49.980;8.358;2023-02-13T03:46:56;2.91;95.83
72277;SHT30;61204;49.980;8.358;2023-02-13T03:49:37;2.85;96.10
72277;SHT30;61204;49.980;8.358;2023-02-13T03:52:40;2.79;96.26
72277;SHT30;61204;49.980;8.358;2023-02-13T03:55:32;2.71;96.37
72277;SHT30;61204;49.980;8.358;2023-02-13T03:58:30;2.57;96.36
72277;SHT30;61204;49.980;8.358;2023-02-13T04:01:21;2.48;96.50
72277;SHT30;61204;49.980;8.358;2023-02-13T04:07:04;2.45;96.82
72277;SHT30;61204;49.980;8.358;2023-02-13T04:09:36;2.42;96.96
72277;SHT30;61204;49.980;8.358;2023-02-13T04:12:25;2.47;97.10
72277;SHT30;61204;49.980;8.358;2023-02-13T04:15:15;2.51;97.30
72277;SHT30;61204;49.980;8.358;2023-02-13T04:18:01;2.48;97.32
72277;SHT30;61204;49.980;8.358;2023-02-13T04:20:31;2.47;97.39
72277;SHT30;61204;49.980;8.358;2023-02-13T04:23:06;2.42;97.34
72277;SHT30;61204;49.980;8.358;2023-02-13T04:25:33;2.47;97.55
72277;SHT30;61204;49.980;8.358;2023-02-13T04:28:01;2.41;97.53
72277;SHT30;61204;49.980;8.358;2023-02-13T04:30:27;2.36;97.52
72277;SHT30;61204;49.980;8.358;2023-02-13T04:32:52;2.24;97.38
72277;SHT30;61204;49.980;8.358;2023-02-13T04:35:18;2.19;97.38
72277;SHT30;61204;49.980;8.358;2023-02-13T04:37:43;2.10;97.35
72277;SHT30;61204;49.980;8.358;2023-02-13T04:40:09;2.01;97.37
72277;SHT30;61204;49.980;8.358;2023-02-13T04:42:35;1.96;97.41
72277;SHT30;61204;49.980;8.358;2023-02-13T04:45:00;1.92;97.49
72277;SHT30;61204;49.980;8.358;2023-02-13T04:47:26;1.91;97.56
72277;SHT30;61204;49.980;8.358;2023-02-13T04:49:51;1.85;97.61
72277;SHT30;61204;49.980;8.358;2023-02-13T04:52:17;1.79;97.64
72277;SHT30;61204;49.980;8.358;2023-02-13T04:54:42;1.74;97.61
72277;SHT30;61204;49.980;8.358;2023-02-13T04:57:08;1.71;97.74
72277;SHT30;61204;49.980;8.358;2023-02-13T04:59:33;1.65;97.77
72277;SHT30;61204;49.980;8.358;2023-02-13T05:01:59;1.61;97.90
72277;SHT30;61204;49.980;8.358;2023-02-13T05:04:24;1.57;97.84
72277;SHT30;61204;49.980;8.358;2023-02-13T05:06:50;1.54;97.90
72277;SHT30;61204;49.980;8.358;2023-02-13T05:09:16;1.55;98.01
72277;SHT30;61204;49.980;8.358;2023-02-13T05:11:41;1.58;98.25
72277;SHT30;61204;49.980;8.358;2023-02-13T05:14:08;1.62;98.24
72277;SHT30;61204;49.980;8.358;2023-02-13T05:16:34;1.68;98.43
72277;SHT30;61204;49.980;8.358;2023-02-13T05:19:00;1.76;98.59
72277;SHT30;61204;49.980;8.358;2023-02-13T05:21:25;1.81;98.61
72277;SHT30;61204;49.980;8.358;2023-02-13T05:24:09;1.94;98.89
72277;SHT30;61204;49.980;8.358;2023-02-13T05:26:34;1.83;98.75
72277;SHT30;61204;49.980;8.358;2023-02-13T05:29:00;1.85;98.74
72277;SHT30;61204;49.980;8.358;2023-02-13T05:31:52;2.02;99.04
72277;SHT30;61204;49.980;8.358;2023-02-13T05:34:23;2.09;99.17
72277;SHT30;61204;49.980;8.358;2023-02-13T05:36:50;2.20;99.31
72277;SHT30;61204;49.980;8.358;2023-02-13T05:39:16;2.41;99.49
72277;SHT30;61204;49.980;8.358;2023-02-13T05:41:42;2.50;99.49
72277;SHT30;61204;49.980;8.358;2023-02-13T05:44:09;2.48;99.32
72277;SHT30;61204;49.980;8.358;2023-02-13T05:46:38;2.40;99.29
72277;SHT30;61204;49.980;8.358;2023-02-13T05:49:06;2.33;99.21
72277;SHT30;61204;49.980;8.358;2023-02-13T05:51:33;2.24;99.19
72277;SHT30;61204;49.980;8.358;2023-02-13T05:54:00;2.17;99.24
72277;SHT30;61204;49.980;8.358;2023-02-13T05:56:26;2.22;99.36
72277;SHT30;61204;49.980;8.358;2023-02-13T05:58:56;2.24;99.41
72277;SHT30;61204;49.980;8.358;2023-02-13T06:01:24;2.29;99.34
72277;SHT30;61204;49.980;8.358;2023-02-13T06:03:49;2.30;99.33
72277;SHT30;61204;49.980;8.358;2023-02-13T06:06:15;2.29;99.34
72277;SHT30;61204;49.980;8.358;2023-02-13T06:08:41;2.33;99.42
72277;SHT30;61204;49.980;8.358;2023-02-13T06:11:07;2.44;99.49
72277;SHT30;61204;49.980;8.358;2023-02-13T06:13:34;2.33;99.31
72277;SHT30;61204;49.980;8.358;2023-02-13T06:15:59;2.27;99.30
72277;SHT30;61204;49.980;8.358;2023-02-13T06:18:25;2.23;99.33
72277;SHT30;61204;49.980;8.358;2023-02-13T06:20:50;2.20;99.32
72277;SHT30;61204;49.980;8.358;2023-02-13T06:23:16;2.13;99.28
72277;SHT30;61204;49.980;8.358;2023-02-13T06:25:41;2.10;99.38
72277;SHT30;61204;49.980;8.358;2023-02-13T06:28:07;2.03;99.38
72277;SHT30;61204;49.980;8.358;2023-02-13T06:30:33;1.99;99.48
72277;SHT30;61204;49.980;8.358;2023-02-13T06:32:59;2.01;99.49
72277;SHT30;61204;49.980;8.358;2023-02-13T06:35:24;1.95;99.52
72277;SHT30;61204;49.980;8.358;2023-02-13T06:37:50;1.95;99.56
72277;SHT30;61204;49.980;8.358;2023-02-13T06:40:16;1.91;99.56
72277;SHT30;61204;49.980;8.358;2023-02-13T06:42:44;1.87;99.56
72277;SHT30;61204;49.980;8.358;2023-02-13T06:45:10;1.94;99.69
72277;SHT30;61204;49.980;8.358;2023-02-13T06:47:41;2.07;99.77
72277;SHT30;61204;49.980;8.358;2023-02-13T06:50:12;2.06;99.70
72277;SHT30;61204;49.980;8.358;2023-02-13T06:52:45;2.07;99.70
72277;SHT30;61204;49.980;8.358;2023-02-13T06:55:12;2.27;99.81
72277;SHT30;61204;49.980;8.358;2023-02-13T06:57:38;2.31;99.77
72277;SHT30;61204;49.980;8.358;2023-02-13T07:00:03;2.38;99.74
72277;SHT30;61204;49.980;8.358;2023-02-13T07:02:31;2.62;99.70
72277;SHT30;61204;49.980;8.358;2023-02-13T07:04:56;2.92;99.62
72277;SHT30;61204;49.980;8.358;2023-02-13T07:07:22;3.03;99.37
72277;SHT30;61204;49.980;8.358;2023-02-13T07:09:50;3.13;99.02
72277;SHT30;61204;49.980;8.358;2023-02-13T07:12:15;3.26;98.69
72277;SHT30;61204;49.980;8.358;2023-02-13T07:14:44;3.41;98.48
72277;SHT30;61204;49.980;8.358;2023-02-13T07:17:10;3.41;98.08
72277;SHT30;61204;49.980;8.358;2023-02-13T07:19:35;3.58;97.81
72277;SHT30;61204;49.980;8.358;2023-02-13T07:22:01;3.86;97.30
72277;SHT30;61204;49.980;8.358;2023-02-13T07:24:26;4.18;96.25
72277;SHT30;61204;49.980;8.358;2023-02-13T07:26:51;4.51;95.31
72277;SHT30;61204;49.980;8.358;2023-02-13T07:29:17;4.93;94.74
72277;SHT30;61204;49.980;8.358;2023-02-13T07:31:42;5.26;93.29
72277;SHT30;61204;49.980;8.358;2023-02-13T07:34:08;5.70;91.98
72277;SHT30;61204;49.980;8.358;2023-02-13T07:36:35;6.13;90.16
72277;SHT30;61204;49.980;8.358;2023-02-13T07:39:01;6.38;88.80
72277;SHT30;61204;49.980;8.358;2023-02-13T07:41:26;6.66;88.00
72277;SHT30;61204;49.980;8.358;2023-02-13T07:43:52;6.97;86.29
72277;SHT30;61204;49.980;8.358;2023-02-13T07:46:18;7.23;87.05
72277;SHT30;61204;49.980;8.358;2023-02-13T07:48:44;7.34;85.91
72277;SHT30;61204;49.980;8.358;2023-02-13T07:51:09;7.59;84.85
72277;SHT30;61204;49.980;8.358;2023-02-13T07:53:35;7.93;84.95
72277;SHT30;61204;49.980;8.358;2023-02-13T07:56:05;7.83;84.45
72277;SHT30;61204;49.980;8.358;2023-02-13T07:58:31;8.00;83.51
72277;SHT30;61204;49.980;8.358;2023-02-13T08:00:56;8.32;83.82
72277;SHT30;61204;49.980;8.358;2023-02-13T08:03:22;8.56;83.24
72277;SHT30;61204;49.980;8.358;2023-02-13T08:05:47;8.58;81.96
72277;SHT30;61204;49.980;8.358;2023-02-13T08:08:13;8.90;81.55
72277;SHT30;61204;49.980;8.358;2023-02-13T08:10:39;9.43;79.90
72277;SHT30;61204;49.980;8.358;2023-02-13T08:13:23;9.70;79.16
72277;SHT30;61204;49.980;8.358;2023-02-13T08:15:49;9.90;78.16
72277;SHT30;61204;49.980;8.358;2023-02-13T08:18:14;9.82;77.64
72277;SHT30;61204;49.980;8.358;2023-02-13T08:20:39;9.72;76.95
72277;SHT30;61204;49.980;8.358;2023-02-13T08:23:06;10.04;76.46
72277;SHT30;61204;49.980;8.358;2023-02-13T08:25:34;10.30;77.40
72277;SHT30;61204;49.980;8.358;2023-02-13T08:28:00;10.55;75.50
72277;SHT30;61204;49.980;8.358;2023-02-13T08:30:26;10.55;75.00
72277;SHT30;61204;49.980;8.358;2023-02-13T08:32:53;10.84;72.97
72277;SHT30;61204;49.980;8.358;2023-02-13T08:35:18;10.83;73.89
72277;SHT30;61204;49.980;8.358;2023-02-13T08:37:44;10.96;72.54
72277;SHT30;61204;49.980;8.358;2023-02-13T08:40:12;10.77;70.10
72277;SHT30;61204;49.980;8.358;2023-02-13T08:42:37;10.93;70.41
72277;SHT30;61204;49.980;8.358;2023-02-13T08:45:03;11.36;71.01
72277;SHT30;61204;49.980;8.358;2023-02-13T08:47:30;10.35;68.71
72277;SHT30;61204;49.980;8.358;2023-02-13T08:49:56;10.59;70.33
72277;SHT30;61204;49.980;8.358;2023-02-13T08:52:22;10.87;69.73
72277;SHT30;61204;49.980;8.358;2023-02-13T08:54:50;11.48;67.95
72277;SHT30;61204;49.980;8.358;2023-02-13T08:57:15;11.69;67.02
72277;SHT30;61204;49.980;8.358;2023-02-13T08:59:40;11.21;66.21
72277;SHT30;61204;49.980;8.358;2023-02-13T09:02:09;11.79;65.55
72277;SHT30;61204;49.980;8.358;2023-02-13T09:04:38;12.05;66.69
72277;SHT30;61204;49.980;8.358;2023-02-13T09:07:04;12.31;65.17
72277;SHT30;61204;49.980;8.358;2023-02-13T09:09:29;12.37;63.36
72277;SHT30;61204;49.980;8.358;2023-02-13T09:11:55;11.77;65.61
72277;SHT30;61204;49.980;8.358;2023-02-13T09:14:22;11.95;64.15
72277;SHT30;61204;49.980;8.358;2023-02-13T09:16:48;11.59;66.06
72277;SHT30;61204;49.980;8.358;2023-02-13T09:19:14;11.49;64.57
72277;SHT30;61204;49.980;8.358;2023-02-13T09:21:39;11.77;64.61
72277;SHT30;61204;49.980;8.358;2023-02-13T09:24:09;12.39;62.21
72277;SHT30;61204;49.980;8.358;2023-02-13T09:26:35;11.97;62.62
72277;SHT30;61204;49.980;8.358;2023-02-13T09:29:01;11.73;63.67
72277;SHT30;61204;49.980;8.358;2023-02-13T09:31:26;12.14;63.45
72277;SHT30;61204;49.980;8.358;2023-02-13T09:33:52;12.49;60.57
72277;SHT30;61204;49.980;8.358;2023-02-13T09:36:22;12.11;61.82
72277;SHT30;61204;49.980;8.358;2023-02-13T09:38:53;12.17;61.74
72277;SHT30;61204;49.980;8.358;2023-02-13T09:41:27;12.67;63.49
72277;SHT30;61204;49.980;8.358;2023-02-13T09:50:05;13.82;57.33
72277;SHT30;61204;49.980;8.358;2023-02-13T09:52:33;13.83;58.25
72277;SHT30;61204;49.980;8.358;2023-02-13T09:55:02;14.20;55.95
72277;SHT30;61204;49.980;8.358;2023-02-13T09:57:59;14.83;55.21
72277;SHT30;61204;49.980;8.358;2023-02-13T10:00:41;15.00;53.01
72277;SHT30;61204;49.980;8.358;2023-02-13T10:03:27;15.20;53.65
72277;SHT30;61204;49.980;8.358;2023-02-13T10:06:07;15.63;52.24
72277;SHT30;61204;49.980;8.358;2023-02-13T10:09:30;15.69;52.11
72277;SHT30;61204;49.980;8.358;2023-02-13T10:12:44;15.78;51.63
72277;SHT30;61204;49.980;8.358;2023-02-13T10:15:16;15.86;52.94
72277;SHT30;61204;49.980;8.358;2023-02-13T10:17:58;15.83;51.66
72277;SHT30;61204;49.980;8.358;2023-02-13T10:20:33;16.41;50.46
72277;SHT30;61204;49.980;8.358;2023-02-13T10:25:55;17.23;48.82
72277;SHT30;61204;49.980;8.358;2023-02-13T10:31:38;17.17;47.61
72277;SHT30;61204;49.980;8.358;2023-02-13T10:34:13;16.86;48.53
72277;SHT30;61204;49.980;8.358;2023-02-13T10:36:44;17.14;48.06
72277;SHT30;61204;49.980;8.358;2023-02-13T10:58:14;18.17;44.90
72277;SHT30;61204;49.980;8.358;2023-02-13T11:00:47;17.51;46.26
72277;SHT30;61204;49.980;8.358;2023-02-13T11:03:26;17.62;45.91
72277;SHT30;61204;49.980;8.358;2023-02-13T11:05:58;18.08;43.94
72277;SHT30;61204;49.980;8.358;2023-02-13T11:08:34;17.94;44.41
72277;SHT30;61204;49.980;8.358;2023-02-13T11:11:27;17.04;45.99
72277;SHT30;61204;49.980;8.358;2023-02-13T11:14:11;16.21;48.08
72277;SHT30;61204;49.980;8.358;2023-02-13T11:19:52;18.00;44.58
72277;SHT30;61204;49.980;8.358;2023-02-13T11:22:35;18.13;43.39
72277;SHT30;61204;49.980;8.358;2023-02-13T11:25:22;18.10;44.44
72277;SHT30;61204;49.980;8.358;2023-02-13T11:28:06;18.51;43.34
72277;SHT30;61204;49.980;8.358;2023-02-13T11:30:35;18.56;42.66
72277;SHT30;61204;49.980;8.358;2023-02-13T11:33:20;18.68;42.44
72277;SHT30;61204;49.980;8.358;2023-02-13T11:35:48;19.02;41.59
72277;SHT30;61204;49.980;8.358;2023-02-13T11:40:46;19.92;40.55
72277;SHT30;61204;49.980;8.358;2023-02-13T11:43:27;19.03;40.51
72277;SHT30;61204;49.980;8.358;2023-02-13T11:46:00;18.59;42.93
72277;SHT30;61204;49.980;8.358;2023-02-13T11:48:27;19.42;41.95
72277;SHT30;61204;49.980;8.358;2023-02-13T11:50:54;18.34;42.78
72277;SHT30;61204;49.980;8.358;2023-02-13T11:53:24;18.89;43.44
72277;SHT30;61204;49.980;8.358;2023-02-13T11:58:29;20.67;39.31
72277;SHT30;61204;49.980;8.358;2023-02-13T12:03:56;21.14;38.97
72277;SHT30;61204;49.980;8.358;2023-02-13T12:06:22;21.45;37.64
72277;SHT30;61204;49.980;8.358;2023-02-13T12:08:48;21.86;37.30
72277;SHT30;61204;49.980;8.358;2023-02-13T12:12:03;20.62;38.47
72277;SHT30;61204;49.980;8.358;2023-02-13T12:14:17;20.86;38.53
72277;SHT30;61204;49.980;8.358;2023-02-13T12:16:55;21.71;37.26
72277;SHT30;61204;49.980;8.358;2023-02-13T12:19:35;20.96;37.96
72277;SHT30;61204;49.980;8.358;2023-02-13T12:22:28;20.73;38.83
72277;SHT30;61204;49.980;8.358;2023-02-13T12:28:14;20.93;38.84
72277;SHT30;61204;49.980;8.358;2023-02-13T12:46:01;21.41;36.99
72277;SHT30;61204;49.980;8.358;2023-02-13T12:52:17;21.42;36.43
72277;SHT30;61204;49.980;8.358;2023-02-13T13:15:34;20.90;37.94
72277;SHT30;61204;49.980;8.358;2023-02-13T13:24:22;20.62;38.19
72277;SHT30;61204;49.980;8.358;2023-02-13T13:27:16;21.17;37.53
72277;SHT30;61204;49.980;8.358;2023-02-13T13:29:56;21.90;36.21
72277;SHT30;61204;49.980;8.358;2023-02-13T13:32:24;21.69;36.28
72277;SHT30;61204;49.980;8.358;2023-02-13T13:34:52;21.65;35.94
72277;SHT30;61204;49.980;8.358;2023-02-13T13:37:30;20.75;37.40
72277;SHT30;61204;49.980;8.358;2023-02-13T13:51:24;20.78;36.60
72277;SHT30;61204;49.980;8.358;2023-02-13T14:07:43;21.99;35.40
72277;SHT30;61204;49.980;8.358;2023-02-13T14:12:59;22.38;34.31
72277;SHT30;61204;49.980;8.358;2023-02-13T14:20:41;19.73;38.52
72277;SHT30;61204;49.980;8.358;2023-02-13T14:31:32;20.12;36.98
72277;SHT30;61204;49.980;8.358;2023-02-13T14:36:44;18.90;39.98
72277;SHT30;61204;49.980;8.358;2023-02-13T14:39:24;19.24;39.58
72277;SHT30;61204;49.980;8.358;2023-02-13T14:44:22;18.75;39.10
72277;SHT30;61204;49.980;8.358;2023-02-13T14:46:51;18.03;41.05
72277;SHT30;61204;49.980;8.358;2023-02-13T14:49:20;17.55;42.07
72277;SHT30;61204;49.980;8.358;2023-02-13T14:51:52;18.11;40.96
72277;SHT30;61204;49.980;8.358;2023-02-13T14:56:53;17.90;41.00
72277;SHT30;61204;49.980;8.358;2023-02-13T14:59:30;17.08;42.80
72277;SHT30;61204;49.980;8.358;2023-02-13T15:02:27;17.56;42.07
72277;SHT30;61204;49.980;8.358;2023-02-13T15:05:06;17.21;42.68
72277;SHT30;61204;49.980;8.358;2023-02-13T15:07:44;16.45;44.23
72277;SHT30;61204;49.980;8.358;2023-02-13T15:10:41;16.34;45.22
72277;SHT30;61204;49.980;8.358;2023-02-13T15:13:23;16.08;45.85
72277;SHT30;61204;49.980;8.358;2023-02-13T15:16:07;15.89;45.96
72277;SHT30;61204;49.980;8.358;2023-02-13T15:18:41;15.63;46.05
72277;SHT30;61204;49.980;8.358;2023-02-13T15:21:15;15.74;45.69
72277;SHT30;61204;49.980;8.358;2023-02-13T15:23:48;15.20;47.08
72277;SHT30;61204;49.980;8.358;2023-02-13T15:26:21;15.44;47.16
72277;SHT30;61204;49.980;8.358;2023-02-13T15:28:59;15.23;47.33
72277;SHT30;61204;49.980;8.358;2023-02-13T15:31:30;14.94;47.58
72277;SHT30;61204;49.980;8.358;2023-02-13T15:33:57;14.63;48.78
72277;SHT30;61204;49.980;8.358;2023-02-13T15:36:25;14.54;48.96
72277;SHT30;61204;49.980;8.358;2023-02-13T15:38:59;14.54;48.98
72277;SHT30;61204;49.980;8.358;2023-02-13T15:41:39;14.54;49.35
72277;SHT30;61204;49.980;8.358;2023-02-13T15:44:15;14.16;50.19
72277;SHT30;61204;49.980;8.358;2023-02-13T15:46:46;14.14;50.37
72277;SHT30;61204;49.980;8.358;2023-02-13T15:49:20;14.24;50.08
72277;SHT30;61204;49.980;8.358;2023-02-13T15:51:49;14.11;50.58
72277;SHT30;61204;49.980;8.358;2023-02-13T15:54:27;13.97;51.14
72277;SHT30;61204;49.980;8.358;2023-02-13T15:56:59;13.83;51.78
72277;SHT30;61204;49.980;8.358;2023-02-13T15:59:32;13.55;51.66
72277;SHT30;61204;49.980;8.358;2023-02-13T16:02:02;13.39;51.77
72277;SHT30;61204;49.980;8.358;2023-02-13T16:04:29;13.34;52.43
72277;SHT30;61204;49.980;8.358;2023-02-13T16:06:59;13.34;52.18
72277;SHT30;61204;49.980;8.358;2023-02-13T16:09:34;12.96;52.54
72277;SHT30;61204;49.980;8.358;2023-02-13T16:12:02;12.79;53.30
72277;SHT30;61204;49.980;8.358;2023-02-13T16:14:47;12.75;53.33
72277;SHT30;61204;49.980;8.358;2023-02-13T16:17:42;12.75;53.61
72277;SHT30;61204;49.980;8.358;2023-02-13T16:22:43;12.37;54.59
72277;SHT30;61204;49.980;8.358;2023-02-13T16:25:30;12.07;55.24
72277;SHT30;61204;49.980;8.358;2023-02-13T16:28:03;11.87;56.01
72277;SHT30;61204;49.980;8.358;2023-02-13T16:30:43;11.72;56.27
72277;SHT30;61204;49.980;8.358;2023-02-13T16:35:50;11.42;57.29
72277;SHT30;61204;49.980;8.358;2023-02-13T16:40:55;11.20;57.63
72277;SHT30;61204;49.980;8.358;2023-02-13T16:48:42;10.92;58.03
72277;SHT30;61204;49.980;8.358;2023-02-13T16:51:11;10.80;57.93
72277;SHT30;61204;49.980;8.358;2023-02-13T16:53:39;10.69;58.25
72277;SHT30;61204;49.980;8.358;2023-02-13T16:56:09;10.63;58.35
72277;SHT30;61204;49.980;8.358;2023-02-13T16:58:38;10.52;58.67
72277;SHT30;61204;49.980;8.358;2023-02-13T17:01:05;10.45;58.75
72277;SHT30;61204;49.980;8.358;2023-02-13T17:03:31;10.34;58.98
72277;SHT30;61204;49.980;8.358;2023-02-13T17:06:01;10.28;59.11
72277;SHT30;61204;49.980;8.358;2023-02-13T17:08:29;10.14;59.60
72277;SHT30;61204;49.980;8.358;2023-02-13T17:11:06;10.03;59.84
72277;SHT30;61204;49.980;8.358;2023-02-13T17:13:33;9.98;60.24
72277;SHT30;61204;49.980;8.358;2023-02-13T17:15:58;9.89;60.22
72277;SHT30;61204;49.980;8.358;2023-02-13T17:18:25;9.80;60.79
72277;SHT30;61204;49.980;8.358;2023-02-13T17:20:52;9.75;61.00
72277;SHT30;61204;49.980;8.358;2023-02-13T17:23:24;9.60;61.15
72277;SHT30;61204;49.980;8.358;2023-02-13T17:25:52;9.52;61.60
72277;SHT30;61204;49.980;8.358;2023-02-13T17:28:21;9.45;62.09
72277;SHT30;61204;49.980;8.358;2023-02-13T17:30:54;9.32;62.79
72277;SHT30;61204;49.980;8.358;2023-02-13T17:33:26;9.27;62.84
72277;SHT30;61204;49.980;8.358;2023-02-13T17:35:53;9.18;63.09
72277;SHT30;61204;49.980;8.358;2023-02-13T17:38:19;9.11;63.58
72277;SHT30;61204;49.980;8.358;2023-02-13T17:40:45;9.08;63.70
72277;SHT30;61204;49.980;8.358;2023-02-13T17:43:12;9.04;64.10
72277;SHT30;61204;49.980;8.358;2023-02-13T17:45:40;9.04;64.25
72277;SHT30;61204;49.980;8.358;2023-02-13T17:48:06;9.00;64.42
72277;SHT30;61204;49.980;8.358;2023-02-13T17:50:33;8.87;64.81
72277;SHT30;61204;49.980;8.358;2023-02-13T17:53:09;8.77;65.24
72277;SHT30;61204;49.980;8.358;2023-02-13T17:55:41;8.70;65.40
72277;SHT30;61204;49.980;8.358;2023-02-13T17:58:07;8.62;65.68
72277;SHT30;61204;49.980;8.358;2023-02-13T18:00:34;8.56;65.97
72277;SHT30;61204;49.980;8.358;2023-02-13T18:03:00;8.51;66.00
72277;SHT30;61204;49.980;8.358;2023-02-13T18:05:27;8.42;66.38
72277;SHT30;61204;49.980;8.358;2023-02-13T18:07:53;8.32;66.91
72277;SHT30;61204;49.980;8.358;2023-02-13T18:10:24;8.18;67.39
72277;SHT30;61204;49.980;8.358;2023-02-13T18:12:52;8.11;67.71
72277;SHT30;61204;49.980;8.358;2023-02-13T18:15:21;7.97;68.52
72277;SHT30;61204;49.980;8.358;2023-02-13T18:17:47;7.97;68.87
72277;SHT30;61204;49.980;8.358;2023-02-13T18:20:16;7.90;69.07
72277;SHT30;61204;49.980;8.358;2023-02-13T18:22:47;7.79;69.57
72277;SHT30;61204;49.980;8.358;2023-02-13T18:25:16;7.87;69.93
72277;SHT30;61204;49.980;8.358;2023-02-13T18:27:43;7.73;70.11
72277;SHT30;61204;49.980;8.358;2023-02-13T18:30:11;7.65;70.41
72277;SHT30;61204;49.980;8.358;2023-02-13T18:32:38;7.61;70.89
72277;SHT30;61204;49.980;8.358;2023-02-13T18:35:04;7.56;71.41
72277;SHT30;61204;49.980;8.358;2023-02-13T18:37:32;7.51;71.42
72277;SHT30;61204;49.980;8.358;2023-02-13T18:39:58;7.42;72.21
72277;SHT30;61204;49.980;8.358;2023-02-13T18:42:24;7.31;72.34
72277;SHT30;61204;49.980;8.358;2023-02-13T18:44:50;7.27;72.86
72277;SHT30;61204;49.980;8.358;2023-02-13T18:47:16;7.17;72.95
72277;SHT30;61204;49.980;8.358;2023-02-13T18:49:42;7.08;73.70
72277;SHT30;61204;49.980;8.358;2023-02-13T18:52:09;7.07;74.38
72277;SHT30;61204;49.980;8.358;2023-02-13T18:54:35;7.08;74.18
72277;SHT30;61204;49.980;8.358;2023-02-13T18:57:02;7.01;74.80
72277;SHT30;61204;49.980;8.358;2023-02-13T18:59:28;6.93;75.40
72277;SHT30;61204;49.980;8.358;2023-02-13T19:01:53;6.90;75.78
72277;SHT30;61204;49.980;8.358;2023-02-13T19:04:19;6.82;75.82
72277;SHT30;61204;49.980;8.358;2023-02-13T19:06:44;6.79;76.56
72277;SHT30;61204;49.980;8.358;2023-02-13T19:09:10;6.65;76.82
72277;SHT30;61204;49.980;8.358;2023-02-13T19:11:36;6.55;77.00
72277;SHT30;61204;49.980;8.358;2023-02-13T19:14:03;6.53;77.54
72277;SHT30;61204;49.980;8.358;2023-02-13T19:16:31;6.46;78.08